createdAt,value
2023-01-10T00:00:40.400Z,32.38
2023-01-10T00:03:09.915Z,32.38
2023-01-10T00:05:38.581Z,31.98
2023-01-10T00:08:07.273Z,31.73
2023-01-10T00:10:34.658Z,29.48
2023-01-10T00:13:20.128Z,40.13
2023-01-10T00:15:47.571Z,36.67
2023-01-10T00:18:14.662Z,35.03
2023-01-10T00:20:41.961Z,33.55
2023-01-10T00:23:09.022Z,32.50
2023-01-10T00:25:36.425Z,32.75
2023-01-10T00:28:20.214Z,31.88
2023-01-10T00:30:55.898Z,33.25
2023-01-10T00:33:24.989Z,34.60
2023-01-10T00:35:52.286Z,31.08
2023-01-10T00:38:19.464Z,29.77
2023-01-10T00:40:46.971Z,31.15
2023-01-10T00:43:32.395Z,27.58
2023-01-10T00:45:59.388Z,30.33
2023-01-10T00:48:26.435Z,28.95
2023-01-10T00:50:53.476Z,33.15
2023-01-10T00:53:21.149Z,28.23
2023-01-10T00:55:48.188Z,33.72
2023-01-10T00:58:16.221Z,31.88
2023-01-10T01:00:47.125Z,29.20
2023-01-10T01:03:14.346Z,30.52
2023-01-10T01:05:43.536Z,28.85
2023-01-10T01:08:12.000Z,33.33
2023-01-10T01:10:39.007Z,29.63
2023-01-10T01:13:25.828Z,29.95
2023-01-10T01:15:53.120Z,29.48
2023-01-10T01:18:21.810Z,33.53
2023-01-10T01:20:54.471Z,28.00
2023-01-10T01:23:21.843Z,28.52
2023-01-10T01:25:53.822Z,29.50
2023-01-10T01:28:23.789Z,29.50
2023-01-10T01:30:51.116Z,25.83
2023-01-10T01:33:18.941Z,25.55
2023-01-10T01:35:47.633Z,27.38
2023-01-10T01:38:15.402Z,31.80
2023-01-10T01:40:42.643Z,26.70
2023-01-10T01:43:28.007Z,30.60
2023-01-10T01:45:55.865Z,27.98
2023-01-10T01:48:28.922Z,28.42
2023-01-10T01:51:08.001Z,29.63
2023-01-10T01:53:41.397Z,28.02
2023-01-10T01:56:20.663Z,27.95
2023-01-10T02:01:21.772Z,25.48
2023-01-10T02:03:54.110Z,29.17
2023-01-10T02:06:25.089Z,30.08
2023-01-10T02:09:10.277Z,27.65
2023-01-10T02:11:37.455Z,28.30
2023-01-10T02:14:06.409Z,29.40
2023-01-10T02:16:33.735Z,27.23
2023-01-10T02:19:00.691Z,28.33
2023-01-10T02:22:01.836Z,26.00
2023-01-10T02:24:37.893Z,30.85
2023-01-10T02:27:28.503Z,31.88
2023-01-10T02:30:35.852Z,30.42
2023-01-10T02:33:42.085Z,28.30
2023-01-10T02:36:26.969Z,29.30
2023-01-10T02:39:03.046Z,25.95
2023-01-10T02:41:52.575Z,24.17
2023-01-10T02:44:24.667Z,27.42
2023-01-10T02:46:52.082Z,25.02
2023-01-10T02:49:19.561Z,31.55
2023-01-10T02:51:46.634Z,25.50
2023-01-10T02:54:20.934Z,28.27
2023-01-10T02:56:56.914Z,26.83
2023-01-10T02:59:48.800Z,26.27
2023-01-10T03:02:34.439Z,23.60
2023-01-10T03:05:23.854Z,23.13
2023-01-10T03:10:25.700Z,23.35
2023-01-10T03:12:58.198Z,25.85
2023-01-10T03:15:29.616Z,24.00
2023-01-10T03:18:01.430Z,24.60
2023-01-10T03:20:33.849Z,21.42
2023-01-10T03:23:03.419Z,26.75
2023-01-10T03:28:23.635Z,23.95
2023-01-10T03:30:55.199Z,24.13
2023-01-10T03:33:27.535Z,22.75
2023-01-10T03:36:16.981Z,23.83
2023-01-10T03:41:34.015Z,25.60
2023-01-10T03:44:35.392Z,22.15
2023-01-10T03:47:09.828Z,23.13
2023-01-10T03:49:40.240Z,23.98
2023-01-10T03:52:10.791Z,24.83
2023-01-10T03:54:38.124Z,24.58
2023-01-10T03:57:06.276Z,26.05
2023-01-10T03:59:33.148Z,21.00
2023-01-10T04:02:00.286Z,24.27
2023-01-10T04:04:27.411Z,25.08
2023-01-10T04:06:54.296Z,23.23
2023-01-10T04:09:21.296Z,21.65
2023-01-10T04:11:48.403Z,24.33
2023-01-10T04:14:15.373Z,27.50
2023-01-10T04:16:42.469Z,24.63
2023-01-10T04:19:09.609Z,25.35
2023-01-10T04:21:36.714Z,27.02
2023-01-10T04:24:03.961Z,25.33
2023-01-10T04:26:30.910Z,26.48
2023-01-10T04:28:57.991Z,22.48
2023-01-10T04:31:27.066Z,27.88
2023-01-10T04:33:54.312Z,25.52
2023-01-10T04:36:21.333Z,21.98
2023-01-10T04:38:48.294Z,29.38
2023-01-10T04:41:15.551Z,24.33
2023-01-10T04:43:42.586Z,27.98
2023-01-10T04:46:09.770Z,26.58
2023-01-10T04:48:37.743Z,29.15
2023-01-10T04:51:04.787Z,25.98
2023-01-10T04:53:32.051Z,29.55
2023-01-10T04:56:05.980Z,25.50
2023-01-10T04:58:34.782Z,28.05
2023-01-10T05:01:08.885Z,30.05
2023-01-10T05:03:36.401Z,24.45
2023-01-10T05:06:03.941Z,27.80
2023-01-10T05:08:31.352Z,26.60
2023-01-10T05:10:59.089Z,25.27
2023-01-10T05:13:26.555Z,27.35
2023-01-10T05:15:58.296Z,26.50
2023-01-10T05:18:26.592Z,27.13
2023-01-10T05:20:53.882Z,27.17
2023-01-10T05:23:20.744Z,28.95
2023-01-10T05:25:47.663Z,25.88
2023-01-10T05:28:14.763Z,26.08
2023-01-10T05:30:41.845Z,26.70
2023-01-10T05:33:08.771Z,22.23
2023-01-10T05:35:36.161Z,25.80
2023-01-10T05:38:03.211Z,24.58
2023-01-10T05:40:30.498Z,23.50
2023-01-10T05:42:57.713Z,26.15
2023-01-10T05:45:24.660Z,25.70
2023-01-10T05:47:51.580Z,24.40
2023-01-10T05:50:19.109Z,26.33
2023-01-10T05:52:45.964Z,29.23
2023-01-10T05:55:13.211Z,26.15
2023-01-10T05:57:40.432Z,24.95
2023-01-10T06:00:08.098Z,23.13
2023-01-10T06:02:41.205Z,24.70
2023-01-10T06:05:08.777Z,24.75
2023-01-10T06:07:35.601Z,26.55
2023-01-10T06:10:02.852Z,27.38
2023-01-10T06:12:30.023Z,25.95
2023-01-10T06:14:56.949Z,24.45
2023-01-10T06:17:23.973Z,24.13
2023-01-10T06:19:52.308Z,28.33
2023-01-10T06:22:19.252Z,26.52
2023-01-10T06:24:46.414Z,24.85
2023-01-10T06:27:14.861Z,22.10
2023-01-10T06:29:41.828Z,24.65
2023-01-10T06:32:08.778Z,26.35
2023-01-10T06:34:35.812Z,23.80
2023-01-10T06:37:02.898Z,24.98
2023-01-10T06:39:30.062Z,22.40
2023-01-10T06:41:56.985Z,22.88
2023-01-10T06:44:24.000Z,28.77
2023-01-10T06:46:50.883Z,23.27
2023-01-10T06:49:17.925Z,24.80
2023-01-10T06:51:44.830Z,23.92
2023-01-10T06:54:11.743Z,27.83
2023-01-10T06:56:39.440Z,23.38
2023-01-10T06:59:08.425Z,26.65
2023-01-10T07:01:35.742Z,24.83
2023-01-10T07:04:02.808Z,25.00
2023-01-10T07:06:30.132Z,25.23
2023-01-10T07:08:57.362Z,28.73
2023-01-10T07:11:24.612Z,25.58
2023-01-10T07:13:53.488Z,26.05
2023-01-10T07:16:20.602Z,27.00
2023-01-10T07:18:47.544Z,28.58
2023-01-10T07:21:15.576Z,26.42
2023-01-10T07:23:43.356Z,27.00
2023-01-10T07:26:12.036Z,27.67
2023-01-10T07:28:39.040Z,28.17
2023-01-10T07:31:06.350Z,24.48
2023-01-10T07:33:33.326Z,27.50
2023-01-10T07:36:01.747Z,28.63
2023-01-10T07:38:29.752Z,29.47
2023-01-10T07:40:56.823Z,26.80
2023-01-10T07:43:23.910Z,30.52
2023-01-10T07:45:50.844Z,30.30
2023-01-10T07:48:18.029Z,29.20
2023-01-10T07:50:45.433Z,26.40
2023-01-10T07:53:12.594Z,30.20
2023-01-10T07:55:39.889Z,29.73
2023-01-10T07:58:08.468Z,30.60
2023-01-10T08:00:35.630Z,32.55
2023-01-10T08:03:02.850Z,31.30
2023-01-10T08:05:29.817Z,29.52
2023-01-10T08:08:00.198Z,33.75
2023-01-10T08:10:27.725Z,27.83
2023-01-10T08:15:39.206Z,28.65
2023-01-10T08:18:06.143Z,28.88
2023-01-10T08:20:32.983Z,31.23
2023-01-10T08:23:00.526Z,28.92
2023-01-10T08:25:27.726Z,32.08
2023-01-10T08:27:54.866Z,40.63
2023-01-10T08:30:23.415Z,36.47
2023-01-10T08:32:52.343Z,34.60
2023-01-10T08:35:19.349Z,34.05
2023-01-10T08:37:46.276Z,37.50
2023-01-10T08:40:13.314Z,32.45
2023-01-10T08:42:40.397Z,32.47
2023-01-10T08:45:07.889Z,33.95
2023-01-10T08:47:37.589Z,32.10
2023-01-10T08:50:07.889Z,30.98
2023-01-10T08:52:35.343Z,33.63
2023-01-10T08:55:02.331Z,31.10
2023-01-10T08:57:32.381Z,35.42
2023-01-10T08:59:59.691Z,38.53
2023-01-10T09:02:26.662Z,37.33
2023-01-10T09:04:53.600Z,38.67
2023-01-10T09:07:20.618Z,37.67
2023-01-10T09:09:47.504Z,40.08
2023-01-10T09:12:33.414Z,35.65
2023-01-10T09:15:00.379Z,38.53
2023-01-10T09:17:27.530Z,48.78
2023-01-10T09:19:56.193Z,41.47
2023-01-10T09:22:23.782Z,52.72
2023-01-10T09:24:50.613Z,53.83
2023-01-10T09:27:17.506Z,53.45
2023-01-10T09:29:44.510Z,52.75
2023-01-10T09:32:11.791Z,55.25
2023-01-10T09:34:38.707Z,58.47
2023-01-10T09:37:05.617Z,51.70
2023-01-10T09:39:34.054Z,55.30
2023-01-10T09:42:06.958Z,58.25
2023-01-10T09:44:49.669Z,62.97
2023-01-10T09:47:22.368Z,60.63
2023-01-10T09:50:48.375Z,57.13
2023-01-10T09:53:20.686Z,69.63
2023-01-10T09:55:54.493Z,70.85
2023-01-10T09:58:27.718Z,71.32
2023-01-10T10:01:00.311Z,87.43
2023-01-10T10:03:43.442Z,65.45
2023-01-10T10:06:13.257Z,63.25
2023-01-10T10:08:42.109Z,89.25
2023-01-10T10:11:19.424Z,85.68
2023-01-10T10:14:12.762Z,87.50
2023-01-10T10:16:54.779Z,93.68
2023-01-10T10:19:40.462Z,87.97
2023-01-10T10:22:19.906Z,79.75
2023-01-10T10:24:56.233Z,71.75
2023-01-10T10:27:35.510Z,69.20
2023-01-10T10:30:08.510Z,62.60
2023-01-10T10:32:43.996Z,59.83
2023-01-10T10:35:18.072Z,58.92
2023-01-10T10:37:55.123Z,65.05
2023-01-10T10:40:32.723Z,66.40
2023-01-10T10:43:07.557Z,64.05
2023-01-10T10:45:52.586Z,57.47
2023-01-10T10:48:33.717Z,64.68
2023-01-10T10:51:23.598Z,59.60
2023-01-10T10:53:51.036Z,64.20
2023-01-10T10:56:25.128Z,62.17
2023-01-10T10:58:55.596Z,59.03
2023-01-10T11:01:26.255Z,70.45
2023-01-10T11:04:00.933Z,66.57
2023-01-10T11:06:33.180Z,66.30
2023-01-10T11:09:04.957Z,72.93
2023-01-10T11:11:44.563Z,79.32
2023-01-10T11:14:13.035Z,81.40
2023-01-10T11:16:44.970Z,81.05
2023-01-10T11:19:18.606Z,78.68
2023-01-10T11:22:03.814Z,78.90
2023-01-10T11:24:55.347Z,71.60
2023-01-10T11:27:31.861Z,61.50
2023-01-10T11:30:08.038Z,65.05
2023-01-10T11:32:38.565Z,65.63
2023-01-10T11:35:17.732Z,64.25
2023-01-10T11:38:06.934Z,67.60
2023-01-10T11:43:27.261Z,58.33
2023-01-10T11:45:57.722Z,56.33
2023-01-10T11:48:53.238Z,51.60
2023-01-10T11:51:25.016Z,58.33
2023-01-10T11:54:00.957Z,51.22
2023-01-10T11:56:33.903Z,53.42
2023-01-10T11:59:12.448Z,56.60
2023-01-10T12:02:16.706Z,52.70
2023-01-10T12:04:47.662Z,53.40
2023-01-10T12:07:14.960Z,54.92
2023-01-10T12:09:42.987Z,60.50
2023-01-10T12:12:27.911Z,51.65
2023-01-10T12:14:57.798Z,55.83
2023-01-10T12:17:30.956Z,54.60
2023-01-10T12:20:00.712Z,51.95
2023-01-10T12:22:42.763Z,48.38
2023-01-10T12:25:20.605Z,49.53
2023-01-10T12:27:50.480Z,56.45
2023-01-10T12:30:41.563Z,56.55
2023-01-10T12:33:17.545Z,56.75
2023-01-10T12:36:09.064Z,58.85
2023-01-10T12:39:11.302Z,57.42
2023-01-10T12:42:28.278Z,57.67
2023-01-10T12:45:07.223Z,50.13
2023-01-10T12:47:46.545Z,53.90
2023-01-10T12:50:22.695Z,42.05
2023-01-10T12:53:12.333Z,43.80
2023-01-10T12:55:43.564Z,46.38
2023-01-10T12:58:21.970Z,49.00
2023-01-10T13:00:56.321Z,65.17
2023-01-10T13:03:33.188Z,55.53
2023-01-10T13:06:01.383Z,62.83
2023-01-10T13:08:32.410Z,63.10
2023-01-10T13:11:00.827Z,57.35
2023-01-10T13:13:43.954Z,53.28
2023-01-10T13:16:24.397Z,50.60
2023-01-10T13:19:27.916Z,50.85
2023-01-10T13:22:19.515Z,53.72
2023-01-10T13:25:01.108Z,49.92
2023-01-10T13:27:35.424Z,49.33
2023-01-10T13:30:04.315Z,51.75
2023-01-10T13:32:34.986Z,42.83
2023-01-10T13:35:19.483Z,43.55
2023-01-10T13:37:54.119Z,42.42
2023-01-10T13:40:27.566Z,44.60
2023-01-10T13:43:34.441Z,57.03
2023-01-10T13:46:17.070Z,49.20
2023-01-10T13:48:50.299Z,50.08
2023-01-10T13:51:22.366Z,56.58
2023-01-10T13:53:51.843Z,44.97
2023-01-10T13:56:35.798Z,44.20
2023-01-10T13:59:17.546Z,46.05
2023-01-10T14:02:09.267Z,41.15
2023-01-10T14:04:40.717Z,41.17
2023-01-10T14:07:39.681Z,47.08
2023-01-10T14:10:22.772Z,37.55
2023-01-10T14:12:57.129Z,41.67
2023-01-10T14:15:31.754Z,32.08
2023-01-10T14:18:08.216Z,27.60
2023-01-10T14:20:36.636Z,22.40
2023-01-10T14:23:28.697Z,24.17
2023-01-10T14:26:00.752Z,21.08
2023-01-10T14:28:41.129Z,22.85
2023-01-10T14:31:20.662Z,26.42
2023-01-10T14:36:28.497Z,20.05
2023-01-10T14:39:02.055Z,18.73
2023-01-10T14:41:40.045Z,19.00
2023-01-10T14:44:19.187Z,19.48
2023-01-10T14:46:51.895Z,20.50
2023-01-10T14:49:29.793Z,19.83
2023-01-10T14:52:22.463Z,25.00
2023-01-10T14:55:10.087Z,27.25
2023-01-10T14:57:37.111Z,22.30
2023-01-10T15:00:17.731Z,21.23
2023-01-10T15:02:46.559Z,12.85
2023-01-10T15:05:46.472Z,12.27
2023-01-10T15:08:31.476Z,12.55
2023-01-10T15:11:08.174Z,10.07
2023-01-10T15:14:03.677Z,9.90
2023-01-10T15:16:32.097Z,7.25
2023-01-10T15:18:59.349Z,11.35
2023-01-10T15:21:27.093Z,11.55
2023-01-10T15:23:55.172Z,7.88
2023-01-10T15:26:29.395Z,7.15
2023-01-10T15:29:24.127Z,10.50
2023-01-10T15:31:53.600Z,10.30
2023-01-10T15:34:24.030Z,9.98
2023-01-10T15:36:55.197Z,9.45
2023-01-10T15:39:31.750Z,9.45
2023-01-10T15:42:03.792Z,11.80
2023-01-10T15:44:36.688Z,7.88
2023-01-10T15:47:04.654Z,7.68
2023-01-10T15:49:31.655Z,6.03
2023-01-10T15:51:58.851Z,7.97
2023-01-10T15:54:25.884Z,7.63
2023-01-10T15:56:57.931Z,8.68
2023-01-10T15:59:39.046Z,8.30
2023-01-10T16:02:31.828Z,6.90
2023-01-10T16:05:07.814Z,6.75
2023-01-10T16:07:42.127Z,9.48
2023-01-10T16:10:19.889Z,10.20
2023-01-10T16:13:05.496Z,8.95
2023-01-10T16:15:35.650Z,7.47
2023-01-10T16:18:02.795Z,11.43
2023-01-10T16:20:34.666Z,48.35
2023-01-10T16:23:03.681Z,29.90
2023-01-10T16:25:37.416Z,46.30
2023-01-10T16:28:10.614Z,262.05
2023-01-10T16:30:40.653Z,120.68
2023-01-10T16:33:12.970Z,35.33
2023-01-10T16:35:39.887Z,44.55
2023-01-10T16:38:08.272Z,40.40
2023-01-10T16:40:38.663Z,10.00
2023-01-10T16:43:17.914Z,25.70
2023-01-10T16:45:46.946Z,8.48
2023-01-10T16:48:14.687Z,31.50
2023-01-10T16:50:42.546Z,7.43
2023-01-10T16:53:17.255Z,15.95
2023-01-10T16:55:47.446Z,8.63
2023-01-10T16:58:15.539Z,12.75
2023-01-10T17:00:44.725Z,19.80
2023-01-10T17:05:40.577Z,11.10
2023-01-10T17:08:15.723Z,7.28
2023-01-10T17:10:43.765Z,11.45
2023-01-10T17:13:11.991Z,27.02
2023-01-10T17:15:39.061Z,18.45
2023-01-10T17:18:06.100Z,16.98
2023-01-10T17:20:33.345Z,18.85
2023-01-10T17:23:00.155Z,17.02
2023-01-10T17:25:27.201Z,22.05
2023-01-10T17:27:54.314Z,12.93
2023-01-10T17:30:21.307Z,20.75
2023-01-10T17:32:48.271Z,14.73
2023-01-10T17:35:15.640Z,23.33
2023-01-10T17:37:42.727Z,17.48
2023-01-10T17:40:10.476Z,25.10
2023-01-10T17:42:37.369Z,19.42
2023-01-10T17:45:04.725Z,14.32
2023-01-10T17:47:32.094Z,18.67
2023-01-10T17:49:59.094Z,18.05
2023-01-10T17:52:26.008Z,17.58
2023-01-10T17:54:53.265Z,11.43
2023-01-10T17:57:20.298Z,10.35
2023-01-10T17:59:47.482Z,9.18
2023-01-10T18:02:18.570Z,7.72
2023-01-10T18:04:46.020Z,10.40
2023-01-10T18:07:13.265Z,8.45
2023-01-10T18:09:40.537Z,8.57
2023-01-10T18:12:07.957Z,7.55
2023-01-10T18:14:37.843Z,9.18
2023-01-10T18:17:08.405Z,5.93
2023-01-10T18:19:36.448Z,6.60
2023-01-10T18:22:24.055Z,11.45
2023-01-10T18:24:52.810Z,6.50
2023-01-10T18:27:20.748Z,7.25
2023-01-10T18:29:49.148Z,6.28
2023-01-10T18:32:16.353Z,6.20
2023-01-10T18:34:43.580Z,6.38
2023-01-10T18:37:11.110Z,8.27
2023-01-10T18:39:38.260Z,6.22
2023-01-10T18:42:05.285Z,6.80
2023-01-10T18:44:32.462Z,5.97
2023-01-10T18:46:59.464Z,7.72
2023-01-10T18:49:26.432Z,11.35
2023-01-10T18:51:53.326Z,5.28
2023-01-10T18:54:20.313Z,2.30
2023-01-10T18:56:47.615Z,4.75
2023-01-10T18:59:15.336Z,7.07
2023-01-10T19:01:42.448Z,6.53
2023-01-10T19:04:11.346Z,4.97
2023-01-10T19:06:38.454Z,4.60
2023-01-10T19:09:05.879Z,6.20
2023-01-10T19:11:32.925Z,3.83
2023-01-10T19:14:00.084Z,11.30
2023-01-10T19:16:33.909Z,6.97
2023-01-10T19:19:06.789Z,5.40
2023-01-10T19:21:34.428Z,4.72
2023-01-10T19:24:04.466Z,5.22
2023-01-10T19:26:32.545Z,5.72
2023-01-10T19:28:59.838Z,4.95
2023-01-10T19:31:29.019Z,5.00
2023-01-10T19:33:59.828Z,4.07
2023-01-10T19:36:27.764Z,6.68
2023-01-10T19:38:58.774Z,5.72
2023-01-10T19:41:27.601Z,7.50
2023-01-10T19:43:57.143Z,6.40
2023-01-10T19:46:24.876Z,4.70
2023-01-10T19:48:51.863Z,3.22
2023-01-10T19:51:18.876Z,5.90
2023-01-10T19:53:46.696Z,5.07
2023-01-10T19:56:23.109Z,3.92
2023-01-10T19:58:50.766Z,4.35
2023-01-10T20:01:29.349Z,4.00
2023-01-10T20:03:58.333Z,4.95
2023-01-10T20:06:27.233Z,5.90
2023-01-10T20:08:55.661Z,4.75
2023-01-10T20:11:25.248Z,4.87
2023-01-10T20:16:21.912Z,5.82
2023-01-10T20:18:50.229Z,6.25
2023-01-10T20:21:18.459Z,7.78
2023-01-10T20:23:46.586Z,6.45
2023-01-10T20:26:23.215Z,6.63
2023-01-10T20:28:50.840Z,8.40
2023-01-10T20:31:21.257Z,4.78
2023-01-10T20:33:49.437Z,4.95
2023-01-10T20:36:22.448Z,5.25
2023-01-10T20:38:50.330Z,5.72
2023-01-10T20:41:23.496Z,5.43
2023-01-10T20:43:51.554Z,6.22
2023-01-10T20:46:20.800Z,5.90
2023-01-10T20:51:20.772Z,5.18
2023-01-10T20:53:49.305Z,6.65
2023-01-10T20:56:19.765Z,8.80
2023-01-10T20:58:47.588Z,5.57
2023-01-10T21:01:24.977Z,6.85
2023-01-10T21:03:56.381Z,6.53
2023-01-10T21:06:24.289Z,13.02
2023-01-10T21:08:51.825Z,6.70
2023-01-10T21:11:20.338Z,7.88
2023-01-10T21:13:47.668Z,6.23
2023-01-10T21:16:16.343Z,7.80
2023-01-10T21:18:44.912Z,6.60
2023-01-10T21:21:14.259Z,6.55
2023-01-10T21:26:12.003Z,6.03
2023-01-10T21:28:46.715Z,7.32
2023-01-10T21:31:19.536Z,7.45
2023-01-10T21:33:46.994Z,7.75
2023-01-10T21:36:13.972Z,6.50
2023-01-10T21:38:41.750Z,8.05
2023-01-10T21:41:39.524Z,6.82
2023-01-10T21:44:07.451Z,6.60
2023-01-10T21:46:34.971Z,6.18
2023-01-10T21:49:02.597Z,4.38
2023-01-10T21:51:29.770Z,12.20
2023-01-10T21:53:57.711Z,4.80
2023-01-10T21:56:25.062Z,4.75
2023-01-10T21:58:52.384Z,4.47
2023-01-10T22:01:19.516Z,2.35
2023-01-10T22:03:46.706Z,3.15
2023-01-10T22:06:13.913Z,3.03
2023-01-10T22:08:41.449Z,2.03
2023-01-10T22:11:10.575Z,3.67
2023-01-10T22:13:38.131Z,2.63
2023-01-10T22:16:05.469Z,3.03
2023-01-10T22:18:33.055Z,5.32
2023-01-10T22:20:59.979Z,9.40
2023-01-10T22:23:29.640Z,11.30
2023-01-10T22:28:31.719Z,13.20
2023-01-10T22:30:59.080Z,9.98
2023-01-10T22:33:31.339Z,11.75
2023-01-10T22:36:10.357Z,12.32
2023-01-10T22:38:37.634Z,13.45
2023-01-10T22:41:12.464Z,10.90
2023-01-10T22:43:39.962Z,7.25
2023-01-10T22:46:07.645Z,4.72
2023-01-10T22:48:36.006Z,3.30
2023-01-10T22:51:03.132Z,2.58
2023-01-10T22:53:30.180Z,2.42
2023-01-10T22:56:00.384Z,1.08
2023-01-10T22:58:27.719Z,1.75
2023-01-10T23:00:55.421Z,5.28
2023-01-10T23:03:23.815Z,8.25
2023-01-10T23:05:56.469Z,7.15
2023-01-10T23:08:24.734Z,6.72
2023-01-10T23:10:53.936Z,6.88
2023-01-10T23:13:22.433Z,8.75
2023-01-10T23:16:06.236Z,5.85
2023-01-10T23:18:36.206Z,3.70
2023-01-10T23:21:05.129Z,5.28
2023-01-10T23:23:32.319Z,7.63
2023-01-10T23:26:05.249Z,4.20
2023-01-10T23:28:35.402Z,4.43
2023-01-10T23:31:03.215Z,5.45
2023-01-10T23:33:32.148Z,3.80
2023-01-10T23:35:59.742Z,6.10
2023-01-10T23:38:27.133Z,4.28
2023-01-10T23:40:54.612Z,5.93
2023-01-10T23:43:22.203Z,4.05
2023-01-10T23:45:49.467Z,6.13
2023-01-10T23:48:16.885Z,7.80
2023-01-10T23:53:28.173Z,6.03
2023-01-10T23:55:56.918Z,6.32
2023-01-10T23:58:23.994Z,6.45
